createdAt,value
2019-02-20T00:01:43.633Z,16.30
2019-02-20T00:04:13.138Z,15.17
2019-02-20T00:06:42.333Z,15.23
2019-02-20T00:09:11.853Z,16.40
2019-02-20T00:11:41.357Z,16.17
2019-02-20T00:14:10.533Z,16.57
2019-02-20T00:16:39.968Z,15.73
2019-02-20T00:19:09.405Z,15.43
2019-02-20T00:21:38.627Z,15.23
2019-02-20T00:24:07.814Z,14.20
2019-02-20T00:26:37.097Z,14.50
2019-02-20T00:29:06.537Z,14.43
2019-02-20T00:31:35.810Z,14.60
2019-02-20T00:34:05.062Z,14.63
2019-02-20T00:36:34.335Z,14.03
2019-02-20T00:39:06.261Z,14.63
2019-02-20T00:41:35.432Z,14.60
2019-02-20T00:44:35.788Z,14.93
2019-02-20T00:47:17.455Z,16.17
2019-02-20T00:49:48.791Z,15.77
2019-02-20T00:52:37.144Z,16.10
2019-02-20T00:55:07.046Z,16.30
2019-02-20T00:57:36.569Z,16.13
2019-02-20T01:00:06.445Z,16.37
2019-02-20T01:02:35.649Z,16.37
2019-02-20T01:05:05.054Z,16.13
2019-02-20T01:07:34.389Z,16.23
2019-02-20T01:10:03.961Z,16.83
2019-02-20T01:12:33.464Z,16.90
2019-02-20T01:15:02.635Z,17.73
2019-02-20T01:17:32.334Z,18.30
2019-02-20T01:20:01.509Z,17.70
2019-02-20T01:22:30.693Z,17.87
2019-02-20T01:25:00.462Z,18.10
2019-02-20T01:27:29.894Z,17.40
2019-02-20T01:29:59.160Z,18.43
2019-02-20T01:32:28.645Z,17.73
2019-02-20T01:34:57.955Z,19.10
2019-02-20T01:37:27.138Z,19.37
2019-02-20T01:39:56.645Z,19.80
2019-02-20T01:42:26.144Z,18.93
2019-02-20T01:44:57.067Z,18.50
2019-02-20T01:47:26.721Z,19.87
2019-02-20T01:49:55.908Z,18.20
2019-02-20T01:52:25.123Z,18.23
2019-02-20T01:54:54.975Z,17.27
2019-02-20T01:57:24.507Z,15.53
2019-02-20T01:59:53.749Z,16.13
2019-02-20T02:02:22.900Z,13.77
2019-02-20T02:04:52.098Z,14.77
2019-02-20T02:07:21.286Z,15.37
2019-02-20T02:09:50.494Z,14.23
2019-02-20T02:12:20.170Z,15.97
2019-02-20T02:14:49.369Z,16.37
2019-02-20T02:17:18.648Z,16.23
2019-02-20T02:19:47.944Z,16.40
2019-02-20T02:22:17.934Z,16.07
2019-02-20T02:24:47.298Z,15.80
2019-02-20T02:27:16.653Z,17.00
2019-02-20T02:29:45.837Z,16.50
2019-02-20T02:32:15.418Z,16.33
2019-02-20T02:34:45.045Z,15.13
2019-02-20T02:37:14.274Z,17.13
2019-02-20T02:39:43.783Z,16.87
2019-02-20T02:42:13.065Z,16.17
2019-02-20T02:44:42.624Z,16.63
2019-02-20T02:47:11.992Z,17.40
2019-02-20T02:49:41.239Z,17.60
2019-02-20T02:52:10.491Z,15.33
2019-02-20T02:54:39.767Z,16.83
2019-02-20T02:57:08.993Z,17.07
2019-02-20T02:59:38.485Z,15.40
2019-02-20T03:02:07.849Z,16.57
2019-02-20T03:04:37.106Z,16.57
2019-02-20T03:07:06.408Z,15.80
2019-02-20T03:09:35.860Z,17.20
2019-02-20T03:12:05.106Z,16.50
2019-02-20T03:14:34.283Z,16.50
2019-02-20T03:17:03.485Z,16.93
2019-02-20T03:19:32.688Z,17.50
2019-02-20T03:22:01.858Z,17.60
2019-02-20T03:24:31.075Z,17.70
2019-02-20T03:27:00.370Z,18.03
2019-02-20T03:29:29.630Z,17.97
2019-02-20T03:31:58.971Z,19.00
2019-02-20T03:34:28.425Z,18.47
2019-02-20T03:36:57.938Z,18.20
2019-02-20T03:39:27.304Z,18.00
2019-02-20T03:41:56.584Z,16.57
2019-02-20T03:44:25.906Z,17.37
2019-02-20T03:46:55.431Z,17.07
2019-02-20T03:49:24.720Z,17.60
2019-02-20T03:51:54.289Z,16.57
2019-02-20T03:54:23.482Z,16.33
2019-02-20T03:56:52.813Z,17.67
2019-02-20T03:59:22.492Z,17.43
2019-02-20T04:01:52.317Z,18.70
2019-02-20T04:04:21.612Z,18.80
2019-02-20T04:06:50.881Z,18.73
2019-02-20T04:09:20.362Z,17.40
2019-02-20T04:11:49.623Z,17.57
2019-02-20T04:14:19.225Z,17.77
2019-02-20T04:16:48.437Z,17.33
2019-02-20T04:19:17.983Z,17.40
2019-02-20T04:21:47.449Z,17.10
2019-02-20T04:24:17.046Z,17.77
2019-02-20T04:26:46.309Z,18.23
2019-02-20T04:29:15.453Z,18.13
2019-02-20T04:31:44.677Z,19.03
2019-02-20T04:34:14.087Z,18.40
2019-02-20T04:36:43.539Z,18.90
2019-02-20T04:39:12.853Z,21.20
2019-02-20T04:41:42.354Z,19.60
2019-02-20T04:44:11.585Z,20.57
2019-02-20T04:46:41.412Z,20.40
2019-02-20T04:49:10.925Z,21.03
2019-02-20T04:51:40.183Z,20.27
2019-02-20T04:54:13.235Z,20.70
2019-02-20T04:56:40.467Z,20.00
2019-02-20T04:59:10.060Z,20.97
2019-02-20T05:01:39.312Z,21.70
2019-02-20T05:04:08.825Z,21.57
2019-02-20T05:06:38.001Z,21.93
2019-02-20T05:09:07.330Z,22.73
2019-02-20T05:11:36.905Z,22.83
2019-02-20T05:14:06.121Z,22.30
2019-02-20T05:16:35.769Z,22.23
2019-02-20T05:19:05.221Z,22.27
2019-02-20T05:21:34.369Z,22.50
2019-02-20T05:24:03.892Z,22.33
2019-02-20T05:26:33.038Z,21.67
2019-02-20T05:29:02.280Z,21.40
2019-02-20T05:31:31.557Z,21.90
2019-02-20T05:34:00.960Z,23.87
2019-02-20T05:36:30.350Z,21.97
2019-02-20T05:38:59.638Z,23.13
2019-02-20T05:41:29.481Z,22.00
2019-02-20T05:43:59.297Z,20.63
2019-02-20T05:46:28.534Z,21.73
2019-02-20T05:48:57.737Z,20.50
2019-02-20T05:51:27.293Z,20.70
2019-02-20T05:53:56.606Z,20.53
2019-02-20T05:56:26.211Z,21.07
2019-02-20T05:58:55.447Z,19.90
2019-02-20T06:01:24.781Z,19.33
2019-02-20T06:03:54.023Z,19.37
2019-02-20T06:06:23.296Z,18.73
2019-02-20T06:08:52.466Z,18.73
2019-02-20T06:11:22.100Z,18.93
2019-02-20T06:13:51.273Z,18.07
2019-02-20T06:16:20.500Z,18.20
2019-02-20T06:18:50.599Z,17.90
2019-02-20T06:21:19.767Z,17.93
2019-02-20T06:23:48.942Z,19.57
2019-02-20T06:26:18.514Z,19.93
2019-02-20T06:28:48.172Z,20.33
2019-02-20T06:31:17.389Z,17.87
2019-02-20T06:33:46.958Z,18.27
2019-02-20T06:36:16.110Z,18.10
2019-02-20T06:38:45.368Z,17.60
2019-02-20T06:41:14.826Z,15.67
2019-02-20T06:43:44.026Z,16.83
2019-02-20T06:46:13.229Z,16.50
2019-02-20T06:48:42.595Z,17.33
2019-02-20T06:51:11.871Z,17.53
2019-02-20T06:53:41.277Z,17.73
2019-02-20T06:56:10.602Z,16.30
2019-02-20T06:58:39.809Z,15.63
2019-02-20T07:01:09.271Z,18.93
2019-02-20T07:03:38.868Z,17.20
2019-02-20T07:06:47.164Z,16.87
2019-02-20T07:09:49.273Z,15.93
2019-02-20T07:12:43.174Z,15.70
2019-02-20T07:15:49.140Z,16.03
2019-02-20T07:18:49.207Z,15.57
2019-02-20T07:22:05.755Z,16.30
2019-02-20T07:25:20.905Z,14.37
2019-02-20T07:28:43.212Z,14.93
2019-02-20T07:31:12.386Z,15.27
2019-02-20T07:33:41.866Z,14.87
2019-02-20T07:36:11.137Z,18.83
2019-02-20T07:38:40.339Z,15.97
2019-02-20T07:41:09.828Z,15.77
2019-02-20T07:43:39.206Z,16.17
2019-02-20T07:46:08.839Z,17.10
2019-02-20T07:48:38.642Z,16.63
2019-02-20T07:51:07.965Z,22.20
2019-02-20T07:53:37.172Z,20.10
2019-02-20T07:56:06.761Z,18.80
2019-02-20T07:58:36.187Z,16.70
2019-02-20T08:01:05.684Z,18.30
2019-02-20T08:03:35.322Z,18.03
2019-02-20T08:06:04.467Z,16.43
2019-02-20T08:08:33.783Z,16.93
2019-02-20T08:11:03.090Z,14.37
2019-02-20T08:13:39.160Z,14.80
2019-02-20T08:16:03.433Z,14.53
2019-02-20T08:18:32.871Z,16.67
2019-02-20T08:21:02.448Z,16.30
2019-02-20T08:23:31.798Z,16.67
2019-02-20T08:26:01.218Z,15.90
2019-02-20T08:28:31.173Z,15.00
2019-02-20T08:31:00.454Z,15.50
2019-02-20T08:33:29.800Z,15.40
2019-02-20T08:35:59.144Z,15.67
2019-02-20T08:38:28.767Z,15.23
2019-02-20T08:40:58.381Z,15.77
2019-02-20T08:43:27.674Z,16.27
2019-02-20T08:45:57.390Z,14.30
2019-02-20T08:48:27.283Z,15.23
2019-02-20T08:50:56.718Z,15.03
2019-02-20T08:53:26.177Z,13.47
2019-02-20T08:55:55.375Z,13.27
2019-02-20T08:58:24.934Z,14.50
2019-02-20T09:00:54.343Z,14.83
2019-02-20T09:03:23.697Z,14.73
2019-02-20T09:05:52.951Z,15.17
2019-02-20T09:08:22.599Z,15.77
2019-02-20T09:10:52.150Z,15.13
2019-02-20T09:13:21.626Z,14.70
2019-02-20T09:15:52.321Z,15.03
2019-02-20T09:18:21.621Z,15.57
2019-02-20T09:20:50.853Z,14.93
2019-02-20T09:23:20.345Z,15.43
2019-02-20T09:25:49.765Z,16.00
2019-02-20T09:28:19.006Z,15.03
2019-02-20T09:30:48.533Z,14.83
2019-02-20T09:33:17.849Z,15.03
2019-02-20T09:35:47.129Z,15.83
2019-02-20T09:38:16.472Z,16.20
2019-02-20T09:40:46.054Z,15.93
2019-02-20T09:43:15.468Z,16.30
2019-02-20T09:45:44.801Z,15.40
2019-02-20T09:48:14.498Z,15.37
2019-02-20T09:50:43.759Z,15.97
2019-02-20T09:53:13.218Z,15.23
2019-02-20T09:55:51.225Z,15.90
2019-02-20T09:58:14.029Z,14.50
2019-02-20T10:00:43.309Z,12.80
2019-02-20T10:03:13.246Z,13.90
2019-02-20T10:05:42.766Z,14.33
2019-02-20T10:08:11.930Z,14.83
2019-02-20T10:10:41.094Z,14.20
2019-02-20T10:13:11.623Z,13.47
2019-02-20T10:15:41.089Z,13.57
2019-02-20T10:18:12.280Z,12.37
2019-02-20T10:20:41.734Z,12.67
2019-02-20T10:23:11.034Z,12.63
2019-02-20T10:25:40.275Z,12.50
2019-02-20T10:28:10.256Z,13.93
2019-02-20T10:30:39.447Z,11.57
2019-02-20T10:33:08.701Z,11.67
2019-02-20T10:35:38.142Z,10.73
2019-02-20T10:38:07.770Z,10.50
2019-02-20T10:40:36.950Z,10.40
2019-02-20T10:43:06.215Z,10.37
2019-02-20T10:45:35.461Z,11.07
2019-02-20T10:48:05.105Z,9.80
2019-02-20T10:50:34.445Z,10.27
2019-02-20T10:53:03.725Z,9.93
2019-02-20T10:55:32.930Z,9.80
2019-02-20T10:58:02.447Z,11.10
2019-02-20T11:00:33.288Z,10.17
2019-02-20T11:03:02.724Z,10.80
2019-02-20T11:05:33.430Z,9.77
2019-02-20T11:08:02.750Z,10.20
2019-02-20T11:10:32.137Z,9.77
2019-02-20T11:13:01.370Z,11.20
2019-02-20T11:15:30.635Z,11.20
2019-02-20T11:18:00.394Z,11.03
2019-02-20T11:20:29.797Z,12.60
2019-02-20T11:22:59.076Z,10.43
2019-02-20T11:25:28.707Z,9.20
2019-02-20T11:27:58.001Z,10.03
2019-02-20T11:30:27.417Z,11.10
2019-02-20T11:32:56.904Z,10.70
2019-02-20T11:35:26.789Z,9.60
2019-02-20T11:37:56.072Z,10.30
2019-02-20T11:40:25.662Z,9.67
2019-02-20T11:42:54.831Z,11.63
2019-02-20T11:45:24.321Z,10.80
2019-02-20T11:47:53.553Z,11.30
2019-02-20T11:50:22.842Z,11.50
2019-02-20T11:52:52.147Z,11.03
2019-02-20T11:55:21.732Z,10.50
2019-02-20T11:57:51.466Z,10.53
2019-02-20T12:00:20.795Z,16.40
2019-02-20T12:02:49.977Z,11.67
2019-02-20T12:05:19.743Z,9.23
2019-02-20T12:07:48.967Z,9.67
2019-02-20T12:10:18.418Z,10.23
2019-02-20T12:12:48.283Z,9.97
2019-02-20T12:15:17.880Z,10.07
2019-02-20T12:17:47.634Z,10.53
2019-02-20T12:20:17.398Z,8.00
2019-02-20T12:22:46.737Z,7.53
2019-02-20T12:25:15.978Z,8.90
2019-02-20T12:27:45.592Z,7.23
2019-02-20T12:30:14.868Z,9.13
2019-02-20T12:32:44.692Z,6.53
2019-02-20T12:35:13.940Z,7.83
2019-02-20T12:37:43.507Z,7.40
2019-02-20T12:40:13.404Z,6.60
2019-02-20T12:42:42.713Z,6.90
2019-02-20T12:45:12.256Z,8.23
2019-02-20T12:47:41.773Z,8.65
2019-02-20T12:50:11.338Z,7.67
2019-02-20T12:52:40.569Z,6.62
2019-02-20T12:55:09.844Z,8.05
2019-02-20T12:57:39.102Z,6.85
2019-02-20T13:00:08.574Z,6.22
2019-02-20T13:02:37.862Z,12.95
2019-02-20T13:05:07.585Z,6.17
2019-02-20T13:07:36.942Z,6.05
2019-02-20T13:10:06.314Z,5.67
2019-02-20T13:12:35.683Z,5.75
2019-02-20T13:15:04.984Z,4.47
2019-02-20T13:17:34.183Z,5.83
2019-02-20T13:20:03.679Z,5.80
2019-02-20T13:22:35.092Z,5.10
2019-02-20T13:25:04.497Z,5.60
2019-02-20T13:27:33.719Z,5.00
2019-02-20T13:30:03.643Z,4.92
2019-02-20T13:32:32.961Z,5.40
2019-02-20T13:35:02.199Z,5.15
2019-02-20T13:37:31.451Z,6.40
2019-02-20T13:40:00.773Z,7.35
2019-02-20T13:42:29.898Z,6.45
2019-02-20T13:44:59.247Z,6.47
2019-02-20T13:47:28.457Z,6.58
2019-02-20T13:49:58.325Z,6.60
2019-02-20T13:52:27.740Z,7.37
2019-02-20T13:54:57.030Z,7.00
2019-02-20T13:57:26.355Z,6.72
2019-02-20T13:59:55.616Z,6.90
2019-02-20T14:02:25.002Z,7.62
2019-02-20T14:04:54.641Z,6.40
2019-02-20T14:07:23.876Z,6.83
2019-02-20T14:09:53.116Z,6.75
2019-02-20T14:12:22.442Z,5.80
2019-02-20T14:14:51.720Z,7.78
2019-02-20T14:17:26.668Z,7.53
2019-02-20T14:19:51.903Z,14.18
2019-02-20T14:22:21.163Z,8.30
2019-02-20T14:24:50.490Z,7.05
2019-02-20T14:27:19.928Z,6.17
2019-02-20T14:29:49.322Z,7.97
2019-02-20T14:32:18.780Z,7.28
2019-02-20T14:34:48.352Z,8.20
2019-02-20T14:37:18.095Z,8.15
2019-02-20T14:39:47.438Z,7.95
2019-02-20T14:42:17.119Z,7.72
2019-02-20T14:44:47.013Z,7.30
2019-02-20T14:47:16.290Z,8.20
2019-02-20T14:49:45.517Z,8.05
2019-02-20T14:52:15.049Z,7.73
2019-02-20T14:54:44.309Z,8.23
2019-02-20T14:57:19.662Z,8.20
2019-02-20T14:59:44.889Z,7.37
2019-02-20T15:02:14.272Z,8.23
2019-02-20T15:04:44.649Z,8.83
2019-02-20T15:07:14.050Z,8.07
2019-02-20T15:09:43.278Z,8.77
2019-02-20T15:12:12.877Z,8.57
2019-02-20T15:14:42.193Z,8.80
2019-02-20T15:17:11.514Z,9.10
2019-02-20T15:19:40.777Z,9.27
2019-02-20T15:22:10.327Z,9.10
2019-02-20T15:24:39.910Z,10.13
2019-02-20T15:27:09.378Z,8.73
2019-02-20T15:29:38.662Z,8.60
2019-02-20T15:32:07.902Z,11.03
2019-02-20T15:34:37.189Z,13.20
2019-02-20T15:37:06.333Z,11.27
2019-02-20T15:39:35.695Z,8.77
2019-02-20T15:42:05.399Z,10.57
2019-02-20T15:44:34.658Z,9.03
2019-02-20T15:47:03.977Z,8.93
2019-02-20T15:49:33.339Z,8.50
2019-02-20T15:52:02.565Z,8.20
2019-02-20T15:54:31.845Z,8.13
2019-02-20T15:57:01.481Z,11.60
2019-02-20T15:59:31.318Z,9.07
2019-02-20T16:02:00.914Z,7.90
2019-02-20T16:04:30.262Z,9.27
2019-02-20T16:06:59.512Z,8.47
2019-02-20T16:09:28.818Z,7.73
2019-02-20T16:11:58.202Z,7.67
2019-02-20T16:14:28.082Z,8.10
2019-02-20T16:16:57.332Z,8.47
2019-02-20T16:19:26.694Z,7.93
2019-02-20T16:21:56.245Z,7.67
2019-02-20T16:24:25.501Z,7.80
2019-02-20T16:26:54.953Z,8.00
2019-02-20T16:29:24.502Z,8.03
2019-02-20T16:31:53.805Z,8.27
2019-02-20T16:34:23.101Z,8.17
2019-02-20T16:36:52.447Z,7.70
2019-02-20T16:39:21.957Z,8.30
2019-02-20T16:41:51.161Z,8.97
2019-02-20T16:44:20.484Z,10.13
2019-02-20T16:46:49.714Z,8.40
2019-02-20T16:49:18.984Z,9.93
2019-02-20T16:51:48.545Z,7.90
2019-02-20T16:54:17.903Z,16.23
2019-02-20T16:56:47.253Z,15.47
2019-02-20T16:59:16.552Z,12.13
2019-02-20T17:01:46.487Z,10.17
2019-02-20T17:04:16.053Z,8.83
2019-02-20T17:06:45.444Z,8.60
2019-02-20T17:09:14.758Z,8.40
2019-02-20T17:11:44.232Z,8.57
2019-02-20T17:14:13.540Z,8.33
2019-02-20T17:16:42.993Z,8.90
2019-02-20T17:19:12.718Z,8.97
2019-02-20T17:21:42.024Z,8.23
2019-02-20T17:24:11.368Z,8.73
2019-02-20T17:26:40.613Z,7.63
2019-02-20T17:29:10.125Z,8.53
2019-02-20T17:31:39.578Z,8.17
2019-02-20T17:34:08.871Z,8.37
2019-02-20T17:36:38.287Z,9.07
2019-02-20T17:39:08.128Z,7.97
2019-02-20T17:41:37.446Z,10.33
2019-02-20T17:44:06.980Z,8.60
2019-02-20T17:46:36.500Z,8.83
2019-02-20T17:49:06.145Z,9.37
2019-02-20T17:51:35.527Z,8.87
2019-02-20T17:54:04.849Z,7.93
2019-02-20T17:56:33.985Z,9.37
2019-02-20T17:59:03.586Z,9.50
2019-02-20T18:01:32.832Z,8.30
2019-02-20T18:04:02.139Z,8.30
2019-02-20T18:06:31.354Z,9.27
2019-02-20T18:09:01.421Z,9.70
2019-02-20T18:11:30.573Z,9.07
2019-02-20T18:13:59.840Z,10.77
2019-02-20T18:16:29.114Z,8.13
2019-02-20T18:18:58.562Z,8.07
2019-02-20T18:21:27.883Z,8.90
2019-02-20T18:23:57.373Z,8.10
2019-02-20T18:26:27.404Z,7.63
2019-02-20T18:28:57.018Z,8.50
2019-02-20T18:31:26.188Z,10.43
2019-02-20T18:33:55.799Z,9.97
2019-02-20T18:36:25.354Z,8.57
2019-02-20T18:38:55.055Z,11.40
2019-02-20T18:41:24.426Z,8.63
2019-02-20T18:43:54.418Z,8.70
2019-02-20T18:46:23.692Z,8.30
2019-02-20T18:48:53.598Z,8.20
2019-02-20T18:51:23.593Z,8.40
2019-02-20T18:53:52.869Z,7.40
2019-02-20T18:56:22.843Z,7.80
2019-02-20T18:58:52.605Z,8.27
2019-02-20T19:01:21.785Z,7.93
2019-02-20T19:03:51.101Z,7.80
2019-02-20T19:06:20.706Z,7.97
2019-02-20T19:08:56.986Z,8.53
2019-02-20T19:11:53.746Z,8.47
2019-02-20T19:14:58.394Z,7.63
2019-02-20T19:18:01.999Z,8.17
2019-02-20T19:20:57.775Z,8.13
2019-02-20T19:23:57.298Z,8.60
2019-02-20T19:26:51.659Z,8.07
2019-02-20T19:30:09.775Z,8.90
2019-02-20T19:33:31.050Z,9.00
2019-02-20T19:36:37.694Z,8.90
2019-02-20T19:39:32.685Z,8.93
2019-02-20T19:42:37.094Z,9.60
2019-02-20T19:45:49.476Z,8.90
2019-02-20T19:49:15.428Z,9.23
2019-02-20T19:52:37.913Z,7.77
2019-02-20T19:55:25.315Z,7.70
2019-02-20T19:58:33.079Z,8.23
2019-02-20T20:01:32.717Z,8.67
2019-02-20T20:04:10.825Z,8.30
2019-02-20T20:07:09.913Z,7.53
2019-02-20T20:10:04.005Z,7.63
2019-02-20T20:12:47.873Z,8.33
2019-02-20T20:15:45.319Z,8.00
2019-02-20T20:18:40.832Z,8.53
2019-02-20T20:21:51.121Z,9.13
2019-02-20T20:24:49.343Z,7.57
2019-02-20T20:27:43.427Z,9.00
2019-02-20T20:30:41.285Z,8.27
2019-02-20T20:34:09.588Z,9.53
2019-02-20T20:37:23.751Z,9.67
2019-02-20T20:40:14.293Z,9.80
2019-02-20T20:43:16.762Z,10.10
2019-02-20T20:46:15.187Z,9.87
2019-02-20T20:49:09.860Z,10.50
2019-02-20T20:52:18.954Z,11.77
2019-02-20T20:55:30.588Z,12.57
2019-02-20T20:58:41.155Z,12.03
2019-02-20T21:01:49.061Z,12.60
2019-02-20T21:04:50.780Z,12.63
2019-02-20T21:07:51.093Z,12.87
2019-02-20T21:11:04.365Z,14.17
2019-02-20T21:14:04.632Z,14.43
2019-02-20T21:17:03.779Z,14.00
2019-02-20T21:20:02.910Z,14.17
2019-02-20T21:23:24.761Z,13.20
2019-02-20T21:26:43.674Z,12.20
2019-02-20T21:29:28.532Z,12.03
2019-02-20T21:32:35.707Z,12.97
2019-02-20T21:35:20.159Z,12.80
2019-02-20T21:38:39.473Z,12.50
2019-02-20T21:41:39.437Z,11.23
2019-02-20T21:44:45.526Z,12.23
2019-02-20T21:47:43.748Z,12.73
2019-02-20T21:51:03.982Z,12.00
2019-02-20T21:54:08.799Z,12.67
2019-02-20T21:56:52.406Z,15.47
2019-02-20T21:59:54.629Z,13.37
2019-02-20T22:02:52.457Z,13.43
2019-02-20T22:05:38.957Z,14.13
2019-02-20T22:09:12.329Z,14.17
2019-02-20T22:12:21.285Z,13.57
2019-02-20T22:15:18.540Z,14.37
2019-02-20T22:18:15.853Z,14.07
2019-02-20T22:21:33.551Z,14.80
2019-02-20T22:25:16.426Z,14.37
2019-02-20T22:28:14.869Z,13.17
2019-02-20T22:30:58.132Z,14.20
2019-02-20T22:33:45.906Z,14.10
2019-02-20T22:36:48.546Z,14.73
2019-02-20T22:39:39.257Z,13.33
2019-02-20T22:43:13.845Z,13.40
2019-02-20T22:46:18.517Z,12.30
2019-02-20T22:49:40.834Z,11.80
2019-02-20T22:52:50.290Z,12.90
2019-02-20T22:56:02.259Z,13.80
2019-02-20T22:58:58.770Z,13.70
2019-02-20T23:02:24.283Z,21.90
2019-02-20T23:05:37.054Z,13.80
2019-02-20T23:08:31.618Z,14.07
2019-02-20T23:11:41.163Z,14.50
2019-02-20T23:14:59.481Z,14.43
2019-02-20T23:17:28.781Z,15.90
2019-02-20T23:19:58.576Z,15.50
2019-02-20T23:22:27.937Z,16.63
2019-02-20T23:24:57.130Z,16.20
2019-02-20T23:27:26.681Z,17.27
2019-02-20T23:29:55.927Z,17.80
2019-02-20T23:32:25.696Z,18.23
2019-02-20T23:34:54.941Z,18.23
2019-02-20T23:37:24.513Z,17.73
2019-02-20T23:39:53.749Z,18.57
2019-02-20T23:42:23.327Z,19.23
2019-02-20T23:44:52.542Z,19.67
2019-02-20T23:47:21.817Z,18.37
2019-02-20T23:49:51.312Z,18.53
2019-02-20T23:52:20.949Z,17.77
2019-02-20T23:54:50.116Z,17.23
2019-02-20T23:57:19.516Z,17.00
2019-02-20T23:59:48.953Z,16.47
